You are not logged in, Click here to log in
Berlin-Tegel Airport / EDDT Berlin
ICAO: EDDT Country: Berlin
Latitude: 52.5597 Longitude: 13.2877
Total Arrivals: 3 Total Departures: 2
Latest Arrival: A6608 (EDDH-EDDT)Arthur. Kung Latest Departure: DL232 (EDDT-LIRF)Arthur. Kung
Scenery: http://en.wikipedia.org/wiki/Erfurt_Airport
METAR : EDDT 190320Z 21013KT CAVOK 06/01 Q1012

Berlin-Tegel Airport

You are accessing this site from IP address 35.175.113.29. Virtual Airline. CMS by phpVMS.Website designed by Zumeweb and edited by Theo Bearman.
There is 0 User(s) Online: | and 5 Guest(s) Online.
All information on this site is for fight simulation purposes only. This site is for flight logging for pilots of Virtual Airline&模擬飛行論壇 FlySim only.